createdAt,value
2022-09-11T00:01:33.393Z,15.35
2022-09-11T00:04:02.653Z,15.33
2022-09-11T00:06:31.488Z,15.34
2022-09-11T00:09:02.922Z,15.33
2022-09-11T00:11:34.393Z,15.32
2022-09-11T00:14:03.568Z,15.32
2022-09-11T00:16:34.649Z,15.29
2022-09-11T00:19:07.956Z,15.29
2022-09-11T00:21:36.523Z,15.29
2022-09-11T00:24:10.222Z,15.29
2022-09-11T00:26:40.236Z,15.26
2022-09-11T00:29:08.460Z,15.23
2022-09-11T00:31:37.018Z,15.20
2022-09-11T00:34:05.518Z,15.21
2022-09-11T00:36:35.769Z,15.20
2022-09-11T00:39:05.904Z,15.19
2022-09-11T00:41:36.614Z,15.19
2022-09-11T00:44:07.365Z,15.16
2022-09-11T00:46:40.169Z,15.18
2022-09-11T00:49:18.446Z,15.17
2022-09-11T00:51:50.696Z,15.16
2022-09-11T00:54:24.473Z,15.15
2022-09-11T00:56:53.639Z,15.14
2022-09-11T00:59:27.150Z,15.13
2022-09-11T01:01:55.893Z,15.13
2022-09-11T01:04:24.793Z,15.13
2022-09-11T01:06:56.628Z,15.13
2022-09-11T01:09:28.884Z,15.11
2022-09-11T01:12:06.921Z,15.09
2022-09-11T01:14:43.206Z,15.10
2022-09-11T01:17:21.340Z,15.08
2022-09-11T01:20:18.509Z,15.06
2022-09-11T01:23:01.388Z,15.05
2022-09-11T01:25:43.633Z,15.05
2022-09-11T01:28:16.805Z,15.05
2022-09-11T01:30:48.353Z,15.06
2022-09-11T01:33:22.923Z,15.08
2022-09-11T01:35:57.693Z,15.06
2022-09-11T01:38:33.591Z,15.05
2022-09-11T01:41:08.161Z,15.04
2022-09-11T01:43:43.739Z,15.06
2022-09-11T01:46:23.186Z,15.05
2022-09-11T01:48:56.355Z,15.05
2022-09-11T01:51:29.298Z,15.05
2022-09-11T01:54:00.249Z,15.06
2022-09-11T01:56:34.316Z,15.05
2022-09-11T01:59:07.507Z,15.05
2022-09-11T02:01:38.646Z,15.01
2022-09-11T02:04:11.129Z,15.04
2022-09-11T02:06:47.619Z,15.04
2022-09-11T02:09:21.685Z,15.07
2022-09-11T02:11:54.911Z,15.05
2022-09-11T02:14:29.171Z,15.06
2022-09-11T02:17:08.942Z,15.06
2022-09-11T02:19:37.176Z,15.05
2022-09-11T02:22:06.288Z,15.04
2022-09-11T02:24:34.848Z,15.02
2022-09-11T02:27:06.984Z,15.06
2022-09-11T02:29:39.425Z,15.06
2022-09-11T02:32:11.300Z,15.05
2022-09-11T02:34:41.890Z,15.04
2022-09-11T02:37:23.095Z,15.04
2022-09-11T02:40:11.159Z,15.03
2022-09-11T02:42:53.038Z,15.00
2022-09-11T02:45:36.004Z,14.99
2022-09-11T02:48:20.813Z,14.97
2022-09-11T02:50:57.231Z,14.95
2022-09-11T02:53:34.235Z,14.93
2022-09-11T02:56:06.811Z,14.95
2022-09-11T02:58:41.592Z,14.96
2022-09-11T03:01:11.927Z,14.95
2022-09-11T03:03:41.718Z,14.92
2022-09-11T03:06:13.591Z,14.89
2022-09-11T03:08:42.060Z,14.93
2022-09-11T03:11:10.588Z,14.90
2022-09-11T03:13:39.242Z,14.92
2022-09-11T03:16:07.923Z,14.93
2022-09-11T03:18:38.131Z,14.93
2022-09-11T03:21:06.975Z,14.94
2022-09-11T03:23:35.119Z,14.97
2022-09-11T03:26:03.235Z,14.97
2022-09-11T03:28:32.207Z,14.97
2022-09-11T03:31:01.012Z,14.95
2022-09-11T03:33:29.242Z,14.92
2022-09-11T03:35:59.710Z,14.93
2022-09-11T03:38:27.957Z,14.89
2022-09-11T03:40:56.444Z,14.89
2022-09-11T03:43:24.688Z,14.86
2022-09-11T03:45:53.609Z,14.86
2022-09-11T03:48:21.742Z,14.88
2022-09-11T03:50:49.829Z,14.85
2022-09-11T03:53:19.642Z,14.84
2022-09-11T03:55:50.045Z,14.82
2022-09-11T03:58:19.097Z,14.80
2022-09-11T04:00:47.719Z,14.80
2022-09-11T04:03:17.331Z,14.80
2022-09-11T04:05:57.320Z,14.79
2022-09-11T04:08:26.946Z,14.78
2022-09-11T04:10:58.748Z,14.79
2022-09-11T04:13:31.410Z,14.79
2022-09-11T04:16:01.478Z,14.79
2022-09-11T04:18:30.283Z,14.79
2022-09-11T04:20:58.670Z,14.80
2022-09-11T04:23:28.095Z,14.81
2022-09-11T04:25:56.450Z,14.81
2022-09-11T04:28:24.708Z,14.76
2022-09-11T04:30:52.848Z,14.76
2022-09-11T04:33:21.868Z,14.77
2022-09-11T04:35:50.085Z,14.76
2022-09-11T04:38:18.807Z,14.75
2022-09-11T04:40:49.541Z,14.72
2022-09-11T04:43:18.125Z,14.68
2022-09-11T04:45:46.279Z,14.64
2022-09-11T04:48:14.513Z,14.65
2022-09-11T04:50:42.709Z,14.63
2022-09-11T04:53:10.883Z,14.61
2022-09-11T04:55:39.019Z,14.57
2022-09-11T04:58:10.182Z,14.58
2022-09-11T05:00:38.318Z,14.62
2022-09-11T05:03:06.539Z,14.59
2022-09-11T05:05:34.564Z,14.59
2022-09-11T05:08:03.962Z,14.59
2022-09-11T05:10:32.104Z,14.57
2022-09-11T05:13:00.092Z,14.61
2022-09-11T05:15:31.910Z,14.61
2022-09-11T05:17:59.899Z,14.64
2022-09-11T05:20:27.944Z,14.65
2022-09-11T05:22:56.403Z,14.67
2022-09-11T05:25:25.344Z,14.68
2022-09-11T05:27:54.146Z,14.71
2022-09-11T05:30:22.260Z,14.73
2022-09-11T05:32:55.703Z,14.75
2022-09-11T05:35:29.232Z,14.76
2022-09-11T05:37:59.809Z,14.80
2022-09-11T05:40:27.999Z,14.82
2022-09-11T05:42:56.411Z,14.84
2022-09-11T05:45:25.241Z,14.87
2022-09-11T05:47:56.055Z,14.89
2022-09-11T05:50:24.370Z,14.90
2022-09-11T05:52:52.441Z,14.93
2022-09-11T05:55:20.623Z,14.96
2022-09-11T05:57:48.714Z,14.97
2022-09-11T06:00:17.084Z,15.00
2022-09-11T06:02:45.522Z,15.05
2022-09-11T06:05:15.224Z,15.09
2022-09-11T06:07:43.283Z,15.16
2022-09-11T06:10:11.512Z,15.17
2022-09-11T06:12:39.639Z,15.17
2022-09-11T06:15:20.328Z,15.24
2022-09-11T06:17:57.167Z,15.30
2022-09-11T06:20:26.713Z,15.37
2022-09-11T06:22:56.674Z,15.43
2022-09-11T06:25:25.428Z,15.45
2022-09-11T06:27:53.480Z,15.50
2022-09-11T06:30:21.720Z,15.52
2022-09-11T06:32:50.752Z,15.54
2022-09-11T06:35:18.923Z,15.54
2022-09-11T06:37:48.389Z,15.59
2022-09-11T06:40:18.215Z,15.62
2022-09-11T06:42:46.352Z,15.64
2022-09-11T06:45:14.683Z,15.63
2022-09-11T06:47:42.741Z,15.65
2022-09-11T06:50:12.004Z,15.66
2022-09-11T06:52:40.115Z,15.67
2022-09-11T06:55:13.556Z,15.71
2022-09-11T06:57:42.398Z,15.73
2022-09-11T07:00:11.752Z,15.76
2022-09-11T07:02:39.860Z,15.76
2022-09-11T07:05:10.899Z,15.79
2022-09-11T07:07:40.048Z,15.78
2022-09-11T07:10:11.287Z,15.82
2022-09-11T07:12:40.124Z,15.84
2022-09-11T07:15:09.949Z,15.86
2022-09-11T07:17:38.173Z,15.89
2022-09-11T07:20:08.394Z,15.92
2022-09-11T07:22:36.491Z,15.94
2022-09-11T07:25:07.661Z,15.94
2022-09-11T07:27:37.191Z,15.92
2022-09-11T07:30:06.038Z,15.93
2022-09-11T07:32:34.224Z,15.92
2022-09-11T07:35:03.324Z,15.97
2022-09-11T07:37:31.565Z,15.99
2022-09-11T07:39:59.840Z,15.99
2022-09-11T07:42:29.002Z,15.99
2022-09-11T07:44:58.523Z,16.01
2022-09-11T07:47:26.710Z,16.01
2022-09-11T07:49:54.799Z,16.01
2022-09-11T07:52:23.397Z,16.00
2022-09-11T07:54:52.210Z,15.97
2022-09-11T07:57:22.094Z,15.96
2022-09-11T07:59:50.210Z,15.96
2022-09-11T08:02:20.452Z,15.96
2022-09-11T08:04:48.649Z,15.97
2022-09-11T08:07:17.199Z,15.97
2022-09-11T08:09:45.325Z,15.97
2022-09-11T08:12:13.514Z,16.00
2022-09-11T08:14:41.600Z,16.01
2022-09-11T08:17:09.637Z,16.01
2022-09-11T08:19:39.593Z,16.01
2022-09-11T08:22:07.688Z,16.03
2022-09-11T08:24:35.807Z,16.09
2022-09-11T08:27:07.015Z,16.12
2022-09-11T08:29:35.224Z,16.18
2022-09-11T08:32:04.087Z,16.25
2022-09-11T08:34:32.234Z,16.22
2022-09-11T08:37:01.666Z,16.27
2022-09-11T08:39:29.679Z,16.28
2022-09-11T08:42:03.625Z,16.33
2022-09-11T08:44:41.282Z,16.36
2022-09-11T08:47:14.896Z,16.41
2022-09-11T08:49:44.182Z,16.46
2022-09-11T08:52:16.971Z,16.54
2022-09-11T08:54:48.016Z,16.59
2022-09-11T08:57:22.239Z,16.64
2022-09-11T09:00:09.044Z,16.65
2022-09-11T09:03:12.645Z,16.69
2022-09-11T09:05:46.464Z,16.72
2022-09-11T09:08:37.845Z,16.71
2022-09-11T09:11:15.612Z,16.78
2022-09-11T09:14:06.013Z,16.74
2022-09-11T09:16:46.589Z,16.77
2022-09-11T09:19:18.624Z,16.83
2022-09-11T09:21:58.677Z,16.89
2022-09-11T09:24:32.539Z,16.89
2022-09-11T09:27:03.663Z,16.88
2022-09-11T09:29:37.914Z,16.88
2022-09-11T09:32:11.262Z,16.88
2022-09-11T09:34:42.332Z,16.85
2022-09-11T09:37:18.787Z,16.92
2022-09-11T09:39:48.986Z,16.91
2022-09-11T09:42:42.029Z,16.91
2022-09-11T09:45:35.274Z,16.89
2022-09-11T09:48:03.586Z,16.85
2022-09-11T09:50:35.009Z,16.85
2022-09-11T09:53:06.698Z,16.89
2022-09-11T09:55:36.324Z,16.93
2022-09-11T09:58:04.451Z,16.94
2022-09-11T10:00:33.007Z,16.93
2022-09-11T10:03:01.209Z,16.95
2022-09-11T10:05:31.451Z,17.01
2022-09-11T10:08:01.699Z,17.02
2022-09-11T10:10:32.197Z,17.02
2022-09-11T10:13:19.133Z,17.02
2022-09-11T10:15:50.282Z,16.97
2022-09-11T10:18:42.768Z,16.93
2022-09-11T10:21:24.150Z,16.91
2022-09-11T10:23:55.713Z,16.82
2022-09-11T10:26:27.582Z,16.77
2022-09-11T10:29:02.898Z,16.79
2022-09-11T10:31:31.079Z,16.78
2022-09-11T10:34:01.777Z,16.75
2022-09-11T10:36:31.811Z,16.71
2022-09-11T10:39:03.417Z,16.71
2022-09-11T10:41:34.997Z,16.66
2022-09-11T10:44:07.890Z,16.68
2022-09-11T10:46:38.569Z,16.65
2022-09-11T10:49:21.972Z,16.62
2022-09-11T10:52:02.035Z,16.66
2022-09-11T10:54:56.309Z,16.62
2022-09-11T10:57:30.679Z,16.62
2022-09-11T11:00:09.164Z,16.65
2022-09-11T11:02:41.062Z,16.67
2022-09-11T11:05:18.184Z,16.66
2022-09-11T11:08:14.031Z,16.61
2022-09-11T11:10:59.163Z,16.63
2022-09-11T11:13:49.454Z,16.57
2022-09-11T11:16:29.215Z,16.52
2022-09-11T11:19:18.638Z,16.46
2022-09-11T11:21:58.414Z,16.44
2022-09-11T11:24:40.273Z,16.36
2022-09-11T11:27:34.487Z,16.27
2022-09-11T11:30:12.747Z,16.32
2022-09-11T11:33:03.922Z,16.33
2022-09-11T11:35:37.998Z,16.33
2022-09-11T11:38:17.569Z,16.32
2022-09-11T11:40:49.751Z,16.31
2022-09-11T11:43:21.318Z,16.32
2022-09-11T11:45:52.824Z,16.29
2022-09-11T11:48:29.425Z,16.30
2022-09-11T11:51:04.440Z,16.29
2022-09-11T11:53:40.268Z,16.31
2022-09-11T11:56:16.018Z,16.32
2022-09-11T11:58:51.337Z,16.30
2022-09-11T12:01:36.497Z,16.31
2022-09-11T12:04:17.573Z,16.28
2022-09-11T12:06:45.759Z,16.22
2022-09-11T12:09:18.101Z,16.23
2022-09-11T12:11:50.831Z,16.23
2022-09-11T12:14:37.468Z,16.23
2022-09-11T12:17:20.600Z,16.27
2022-09-11T12:20:32.425Z,16.26
2022-09-11T12:23:01.019Z,16.26
2022-09-11T12:26:04.666Z,16.25
2022-09-11T12:28:33.411Z,16.27
2022-09-11T12:31:04.534Z,16.31
2022-09-11T12:33:57.720Z,16.30
2022-09-11T12:36:51.385Z,16.26
2022-09-11T12:39:27.810Z,16.29
2022-09-11T12:42:46.037Z,16.31
2022-09-11T12:45:34.658Z,16.28
2022-09-11T12:48:08.844Z,16.32
2022-09-11T12:50:38.405Z,16.35
2022-09-11T12:53:17.870Z,16.39
2022-09-11T12:55:54.819Z,16.42
2022-09-11T12:58:31.948Z,16.45
2022-09-11T13:01:16.340Z,16.47
2022-09-11T13:03:54.325Z,16.51
2022-09-11T13:06:24.567Z,16.51
2022-09-11T13:08:59.880Z,16.53
2022-09-11T13:11:39.342Z,16.54
2022-09-11T13:14:27.975Z,16.57
2022-09-11T13:16:56.635Z,16.60
2022-09-11T13:19:26.377Z,16.61
2022-09-11T13:21:56.711Z,16.60
2022-09-11T13:24:28.249Z,16.64
2022-09-11T13:26:58.278Z,16.69
2022-09-11T13:29:30.194Z,16.78
2022-09-11T13:32:00.762Z,16.89
2022-09-11T13:34:30.951Z,16.98
2022-09-11T13:36:59.798Z,17.07
2022-09-11T13:39:29.549Z,17.09
2022-09-11T13:42:03.800Z,17.10
2022-09-11T13:44:40.971Z,17.13
2022-09-11T13:47:18.851Z,17.10
2022-09-11T13:49:48.057Z,17.14
2022-09-11T13:52:16.874Z,17.12
2022-09-11T13:54:50.752Z,17.13
2022-09-11T13:57:20.906Z,17.11
2022-09-11T13:59:52.062Z,17.08
2022-09-11T14:02:31.253Z,17.06
2022-09-11T14:05:04.832Z,17.08
2022-09-11T14:07:35.225Z,17.07
2022-09-11T14:10:07.798Z,17.10
2022-09-11T14:12:49.244Z,17.11
2022-09-11T14:15:31.501Z,17.09
2022-09-11T14:18:03.376Z,17.08
2022-09-11T14:20:31.760Z,17.10
2022-09-11T14:23:05.375Z,17.09
2022-09-11T14:25:34.917Z,17.15
2022-09-11T14:28:03.264Z,17.18
2022-09-11T14:30:38.093Z,17.20
2022-09-11T14:33:24.260Z,17.18
2022-09-11T14:35:55.116Z,17.18
2022-09-11T14:38:26.355Z,17.20
2022-09-11T14:41:01.503Z,17.22
2022-09-11T14:43:32.841Z,17.19
2022-09-11T14:46:02.151Z,17.21
2022-09-11T14:48:31.719Z,17.25
2022-09-11T14:51:00.388Z,17.23
2022-09-11T14:53:31.561Z,17.25
2022-09-11T14:56:02.669Z,17.26
2022-09-11T14:58:31.455Z,17.28
2022-09-11T15:00:59.550Z,17.33
2022-09-11T15:03:27.735Z,17.37
2022-09-11T15:05:57.853Z,17.46
2022-09-11T15:08:26.867Z,17.53
2022-09-11T15:10:55.325Z,17.58
2022-09-11T15:13:24.822Z,17.61
2022-09-11T15:15:53.041Z,17.62
2022-09-11T15:18:21.215Z,17.63
2022-09-11T15:20:49.279Z,17.66
2022-09-11T15:23:17.793Z,17.66
2022-09-11T15:25:46.015Z,17.70
2022-09-11T15:28:14.319Z,17.70
2022-09-11T15:30:43.924Z,17.72
2022-09-11T15:33:12.178Z,17.70
2022-09-11T15:35:40.841Z,17.72
2022-09-11T15:38:09.956Z,17.71
2022-09-11T15:40:39.456Z,17.69
2022-09-11T15:43:07.517Z,17.67
2022-09-11T15:45:35.754Z,17.67
2022-09-11T15:48:05.429Z,17.68
2022-09-11T15:50:33.484Z,17.70
2022-09-11T15:53:01.991Z,17.70
2022-09-11T15:55:31.193Z,17.68
2022-09-11T15:58:01.337Z,17.69
2022-09-11T16:00:29.787Z,17.69
2022-09-11T16:02:57.854Z,17.76
2022-09-11T16:05:27.431Z,17.79
2022-09-11T16:07:55.608Z,17.76
2022-09-11T16:10:23.840Z,17.78
2022-09-11T16:12:58.138Z,17.77
2022-09-11T16:15:27.098Z,17.76
2022-09-11T16:17:55.264Z,17.75
2022-09-11T16:20:25.035Z,17.77
2022-09-11T16:22:54.781Z,17.78
2022-09-11T16:25:22.892Z,17.78
2022-09-11T16:27:53.280Z,17.78
2022-09-11T16:30:42.167Z,17.81
2022-09-11T16:33:10.572Z,17.81
2022-09-11T16:35:38.731Z,17.80
2022-09-11T16:38:08.817Z,17.80
2022-09-11T16:40:37.447Z,17.79
2022-09-11T16:43:06.407Z,17.80
2022-09-11T16:45:34.925Z,17.80
2022-09-11T16:48:06.718Z,17.79
2022-09-11T16:50:34.835Z,17.79
2022-09-11T16:53:02.910Z,17.77
2022-09-11T16:55:32.518Z,17.75
2022-09-11T16:58:00.622Z,17.76
2022-09-11T17:00:29.014Z,17.75
2022-09-11T17:02:57.206Z,17.74
2022-09-11T17:05:25.399Z,17.73
2022-09-11T17:07:53.512Z,17.70
2022-09-11T17:10:21.979Z,17.68
2022-09-11T17:12:51.600Z,17.68
2022-09-11T17:15:20.391Z,17.67
2022-09-11T17:17:49.439Z,17.68
2022-09-11T17:20:17.823Z,17.69
2022-09-11T17:22:46.321Z,17.69
2022-09-11T17:25:14.572Z,17.68
2022-09-11T17:27:42.568Z,17.69
2022-09-11T17:30:16.057Z,17.71
2022-09-11T17:32:44.328Z,17.74
2022-09-11T17:35:13.463Z,17.74
2022-09-11T17:37:42.805Z,17.78
2022-09-11T17:40:11.828Z,17.78
2022-09-11T17:42:40.490Z,17.78
2022-09-11T17:45:10.565Z,17.77
2022-09-11T17:47:41.049Z,17.79
2022-09-11T17:50:09.820Z,17.80
2022-09-11T17:52:38.643Z,17.79
2022-09-11T17:55:07.866Z,17.81
2022-09-11T17:57:36.225Z,17.82
2022-09-11T18:00:06.060Z,17.81
2022-09-11T18:02:34.214Z,17.83
2022-09-11T18:05:03.748Z,17.83
2022-09-11T18:07:32.199Z,17.82
2022-09-11T18:10:00.294Z,17.84
2022-09-11T18:12:29.041Z,17.84
2022-09-11T18:14:59.725Z,17.87
2022-09-11T18:17:27.907Z,17.91
2022-09-11T18:19:56.649Z,17.96
2022-09-11T18:22:29.810Z,18.04
2022-09-11T18:24:59.877Z,18.09
2022-09-11T18:27:29.811Z,18.13
2022-09-11T18:29:59.843Z,18.03
2022-09-11T18:32:29.943Z,18.01
2022-09-11T18:35:00.048Z,18.00
2022-09-11T18:37:30.225Z,18.00
2022-09-11T18:39:59.971Z,17.99
2022-09-11T18:42:28.610Z,17.97
2022-09-11T18:44:57.057Z,17.96
2022-09-11T18:47:27.896Z,17.95
2022-09-11T18:49:57.185Z,17.90
2022-09-11T18:52:26.360Z,17.88
2022-09-11T18:54:55.993Z,17.88
2022-09-11T18:57:24.679Z,17.87
2022-09-11T18:59:52.974Z,17.85
2022-09-11T19:02:21.183Z,17.82
2022-09-11T19:04:49.714Z,17.78
2022-09-11T19:07:17.923Z,17.76
2022-09-11T19:09:46.812Z,17.72
2022-09-11T19:12:17.193Z,17.71
2022-09-11T19:14:45.342Z,17.70
2022-09-11T19:17:13.524Z,17.69
2022-09-11T19:19:41.793Z,17.66
2022-09-11T19:22:11.405Z,17.62
2022-09-11T19:24:39.762Z,17.62
2022-09-11T19:27:08.015Z,17.62
2022-09-11T19:29:37.696Z,17.60
2022-09-11T19:32:08.288Z,17.59
2022-09-11T19:34:38.836Z,17.56
2022-09-11T19:37:07.157Z,17.56
2022-09-11T19:39:35.428Z,17.55
2022-09-11T19:42:04.156Z,17.53
2022-09-11T19:44:34.680Z,17.54
2022-09-11T19:47:04.602Z,17.54
2022-09-11T19:49:33.155Z,17.56
2022-09-11T19:52:01.711Z,17.58
2022-09-11T19:54:30.841Z,17.61
2022-09-11T19:57:00.344Z,17.60
2022-09-11T19:59:28.839Z,17.62
2022-09-11T20:01:56.967Z,17.61
2022-09-11T20:04:26.764Z,17.61
2022-09-11T20:09:37.489Z,17.63
2022-09-11T20:12:06.434Z,17.63
2022-09-11T20:14:35.968Z,17.63
2022-09-11T20:17:09.232Z,17.63
2022-09-11T20:19:40.816Z,17.64
2022-09-11T20:22:09.461Z,17.61
2022-09-11T20:24:37.813Z,17.61
2022-09-11T20:27:06.896Z,17.62
2022-09-11T20:29:35.109Z,17.62
2022-09-11T20:32:03.545Z,17.65
2022-09-11T20:34:31.740Z,17.65
2022-09-11T20:37:01.157Z,17.66
2022-09-11T20:39:29.434Z,17.63
2022-09-11T20:41:57.995Z,17.61
2022-09-11T20:44:26.843Z,17.59
2022-09-11T20:46:55.002Z,17.58
2022-09-11T20:49:23.196Z,17.54
2022-09-11T20:51:51.493Z,17.54
2022-09-11T20:54:21.196Z,17.54
2022-09-11T20:56:49.560Z,17.53
2022-09-11T20:59:17.712Z,17.53
2022-09-11T21:01:45.911Z,17.56
2022-09-11T21:04:14.257Z,17.55
2022-09-11T21:06:42.459Z,17.57
2022-09-11T21:09:12.966Z,17.57
2022-09-11T21:11:42.882Z,17.56
2022-09-11T21:14:12.243Z,17.56
2022-09-11T21:16:40.553Z,17.56
2022-09-11T21:19:10.377Z,17.57
2022-09-11T21:21:40.279Z,17.59
2022-09-11T21:24:11.808Z,17.59
2022-09-11T21:26:39.968Z,17.60
2022-09-11T21:29:12.457Z,17.61
2022-09-11T21:31:40.723Z,17.62
2022-09-11T21:34:08.932Z,17.66
2022-09-11T21:36:37.992Z,17.67
2022-09-11T21:39:06.973Z,17.69
2022-09-11T21:41:35.098Z,17.71
2022-09-11T21:44:03.893Z,17.72
2022-09-11T21:46:33.473Z,17.75
2022-09-11T21:49:01.841Z,17.75
2022-09-11T21:51:29.948Z,17.77
2022-09-11T21:54:01.797Z,17.77
2022-09-11T21:56:33.286Z,17.78
2022-09-11T21:59:02.099Z,17.77
2022-09-11T22:01:31.800Z,17.78
2022-09-11T22:04:02.022Z,17.78
2022-09-11T22:06:31.232Z,17.79
2022-09-11T22:08:59.622Z,17.78
2022-09-11T22:11:28.242Z,17.74
2022-09-11T22:13:56.434Z,17.72
2022-09-11T22:16:24.682Z,17.71
2022-09-11T22:18:55.563Z,17.70
2022-09-11T22:21:25.337Z,17.69
2022-09-11T22:23:53.567Z,17.70
2022-09-11T22:26:24.079Z,17.71
2022-09-11T22:28:52.976Z,17.73
2022-09-11T22:31:23.919Z,17.74
2022-09-11T22:33:52.230Z,17.76
2022-09-11T22:36:23.503Z,17.77
2022-09-11T22:38:53.402Z,17.78
2022-09-11T22:41:22.368Z,17.79
2022-09-11T22:43:50.880Z,17.80
2022-09-11T22:46:20.921Z,17.80
2022-09-11T22:48:49.498Z,17.80
2022-09-11T22:51:18.084Z,17.79
2022-09-11T22:53:46.876Z,17.82
2022-09-11T22:56:16.883Z,17.84
2022-09-11T22:58:45.147Z,17.83
2022-09-11T23:01:21.063Z,17.85
2022-09-11T23:03:50.432Z,17.87
2022-09-11T23:06:36.580Z,17.88
2022-09-11T23:09:05.836Z,17.87
2022-09-11T23:11:35.590Z,17.87
2022-09-11T23:14:03.705Z,17.88
2022-09-11T23:16:32.572Z,17.89
2022-09-11T23:19:02.840Z,17.89
2022-09-11T23:21:33.974Z,17.90
2022-09-11T23:24:02.755Z,17.91
2022-09-11T23:26:31.113Z,17.92
2022-09-11T23:29:01.091Z,17.92
2022-09-11T23:31:31.451Z,17.92
2022-09-11T23:34:01.367Z,17.86
2022-09-11T23:36:30.795Z,17.88
2022-09-11T23:38:59.306Z,17.84
2022-09-11T23:41:27.893Z,17.84
2022-09-11T23:43:56.501Z,17.82
2022-09-11T23:46:26.302Z,17.77
2022-09-11T23:48:54.793Z,17.74
2022-09-11T23:51:23.003Z,17.74
2022-09-11T23:53:51.839Z,17.71
2022-09-11T23:56:20.998Z,17.71
2022-09-11T23:58:50.206Z,17.68
